Time;durP1;ratioP1;P1;durP2;ratioP2;P2;SDS_P1;SDS_P2;PMS_P1;PMS_P2;Temp;Humidity;BMP_temperature;BMP_pressure;BME280_temperature;BME280_humidity;BME280_pressure;Samples;Min_cycle;Max_cycle;Signal;HPM_P1;HPM_P2
2022/06/18 00:00:22;;;;;;;;;3.75;3.25;;;;;26.24;54.95;101351.28;5107195;27;49188;-53
2022/06/18 00:02:48;;;;;;;;;5.50;3.25;;;;;26.23;54.25;101345.06;5101684;27;45435;-54
2022/06/18 00:05:15;;;;;;;;;5.50;4.00;;;;;26.24;54.97;101346.78;5088904;27;45402;-50
2022/06/18 00:07:45;;;;;;;;;4.75;3.25;;;;;26.24;54.89;101338.72;5102712;27;46796;-54
2022/06/18 00:10:17;;;;;;;;;5.25;4.00;;;;;26.25;54.36;101337.72;5106281;27;45470;-50
2022/06/18 00:15:30;;;;;;;;;7.25;4.00;;;;;26.25;54.91;101337.72;5103856;27;45596;-50
2022/06/18 00:17:55;;;;;;;;;5.00;4.25;;;;;26.25;54.57;101342.25;5111738;27;46373;-54
2022/06/18 00:20:23;;;;;;;;;5.50;4.50;;;;;26.24;54.64;101337.84;5105572;27;45638;-55
2022/06/18 00:22:56;;;;;;;;;4.75;3.25;;;;;26.25;54.29;101336.88;5102246;27;45385;-53
2022/06/18 00:25:36;;;;;;;;;5.50;4.50;;;;;26.26;54.75;101330.53;5108101;27;45413;-54
2022/06/18 00:28:07;;;;;;;;;3.50;3.50;;;;;26.25;54.63;101328.84;5109136;27;46632;-50
2022/06/18 00:30:32;;;;;;;;;4.00;4.00;;;;;26.25;54.42;101329.69;5103434;27;45311;-54
2022/06/18 00:32:58;;;;;;;;;5.25;2.50;;;;;26.25;54.36;101326.16;5115146;27;45479;-54
2022/06/18 00:35:24;;;;;;;;;2.25;2.25;;;;;26.25;54.24;101335.06;5109011;27;45460;-53
2022/06/18 00:37:53;;;;;;;;;4.50;4.00;;;;;26.25;54.52;101331.53;5100796;27;45366;-53
2022/06/18 00:40:25;;;;;;;;;5.25;3.25;;;;;26.23;54.36;101331.66;5107169;27;45639;-54
2022/06/18 00:42:51;;;;;;;;;3.25;2.25;;;;;26.25;54.60;101339.56;5091685;27;45483;-52
2022/06/18 00:45:24;;;;;;;;;3.25;3.25;;;;;26.24;54.35;101338.72;5105202;27;58216;-51
2022/06/18 00:48:21;;;;;;;;;5.00;4.50;;;;;26.25;54.12;101339.56;5095956;27;45368;-51
2022/06/18 00:50:54;;;;;;;;;3.25;3.25;;;;;26.26;54.38;101341.25;5095894;27;45366;-54
2022/06/18 00:53:30;;;;;;;;;5.25;3.50;;;;;26.26;54.18;101342.13;5105450;27;45380;-54
2022/06/18 00:56:01;;;;;;;;;2.25;2.00;;;;;26.25;54.39;101340.41;5105857;27;45533;-55
2022/06/18 00:58:32;;;;;;;;;4.00;4.00;;;;;26.25;54.60;101334.22;5099148;27;46396;-50
2022/06/18 01:00:59;;;;;;;;;4.00;3.25;;;;;26.24;54.55;101336.06;5103580;27;45525;-54
2022/06/18 01:03:33;;;;;;;;;7.50;5.00;;;;;26.25;54.68;101334.22;5102881;27;45469;-53
2022/06/18 01:06:02;;;;;;;;;4.00;3.25;;;;;26.26;54.26;101335.88;5104071;27;45277;-52
2022/06/18 01:08:30;;;;;;;;;3.25;3.25;;;;;26.24;54.07;101333.38;5103456;27;45529;-54
2022/06/18 01:10:58;;;;;;;;;5.00;4.25;;;;;26.25;54.63;101334.22;5124678;27;45684;-52
2022/06/18 01:13:28;;;;;;;;;7.50;5.00;;;;;26.24;54.48;101335.19;5109102;27;45467;-54
2022/06/18 01:15:55;;;;;;;;;3.00;2.75;;;;;26.25;54.21;101335.06;5111641;27;45431;-54
2022/06/18 01:18:21;;;;;;;;;5.25;3.25;;;;;26.25;54.29;101332.38;5085085;27;47346;-53
2022/06/18 01:20:53;;;;;;;;;4.00;3.75;;;;;26.25;54.25;101329.69;5104228;27;45378;-54
2022/06/18 01:23:27;;;;;;;;;5.00;4.00;;;;;26.25;54.49;101332.38;5104524;27;45281;-54
2022/06/18 01:25:54;;;;;;;;;5.00;5.00;;;;;26.25;54.19;101326.16;5106712;27;45400;-54
2022/06/18 01:28:20;;;;;;;;;3.25;3.25;;;;;26.23;54.44;101320.91;5107589;27;48494;-54
2022/06/18 01:30:45;;;;;;;;;8.50;4.00;;;;;26.25;54.23;101321.63;5105189;27;45242;-54
2022/06/18 01:33:12;;;;;;;;;5.75;3.25;;;;;26.25;54.42;101316.28;5096400;27;45499;-53
2022/06/18 01:35:40;;;;;;;;;4.75;3.25;;;;;26.22;54.66;101318.34;5110941;27;45443;-54
2022/06/18 01:38:06;;;;;;;;;10.00;4.00;;;;;26.25;54.62;101320.78;5105230;27;45535;-53
2022/06/18 01:40:39;;;;;;;;;6.75;4.25;;;;;26.26;53.99;101325.16;5093336;27;45507;-52
2022/06/18 01:43:05;;;;;;;;;3.00;2.25;;;;;26.26;54.30;101314.44;5108081;27;45630;-49
2022/06/18 01:45:33;;;;;;;;;4.50;4.25;;;;;26.25;54.11;101318.94;5106777;27;45378;-54
2022/06/18 01:48:02;;;;;;;;;4.00;4.00;;;;;26.25;54.59;101308.22;5104969;27;46163;-52
2022/06/18 01:50:37;;;;;;;;;5.00;4.00;;;;;26.25;54.14;101302.00;5109979;27;45445;-52
2022/06/18 01:53:10;;;;;;;;;5.00;5.00;;;;;26.26;53.99;101309.94;5108437;27;45461;-52
2022/06/18 01:55:41;;;;;;;;;5.25;3.25;;;;;26.26;54.07;101303.69;5109976;27;45417;-52
2022/06/18 01:58:15;;;;;;;;;5.25;5.25;;;;;26.26;54.48;101301.88;5117738;27;46898;-53
2022/06/18 02:00:42;;;;;;;;;4.00;4.00;;;;;26.26;53.95;101298.31;5105209;27;45538;-50
2022/06/18 02:03:08;;;;;;;;;5.25;2.50;;;;;26.26;54.16;101304.56;5103254;27;45291;-52
2022/06/18 02:05:33;;;;;;;;;5.25;3.25;;;;;26.25;54.27;101297.50;5107944;27;45252;-53
2022/06/18 02:08:00;;;;;;;;;5.25;4.75;;;;;26.27;54.18;101294.69;5108386;27;47151;-53
2022/06/18 02:10:37;;;;;;;;;8.00;4.50;;;;;26.26;53.95;101293.84;5111880;27;45710;-50
2022/06/18 02:13:04;;;;;;;;;3.50;3.25;;;;;26.26;53.91;101299.19;5110879;27;45290;-52
2022/06/18 02:15:36;;;;;;;;;6.00;3.25;;;;;26.26;54.11;101295.66;5112147;27;45440;-51
2022/06/18 02:18:07;;;;;;;;;5.50;4.00;;;;;26.27;54.29;101300.03;5102456;27;47138;-50
2022/06/18 02:20:38;;;;;;;;;6.00;4.00;;;;;26.27;54.08;101294.69;5127089;27;45646;-54
2022/06/18 02:23:03;;;;;;;;;4.50;4.00;;;;;26.28;54.38;101296.41;5102549;27;45293;-53
2022/06/18 02:25:30;;;;;;;;;7.00;5.25;;;;;26.27;53.81;101292.84;5103323;27;73248;-52
2022/06/18 02:27:57;;;;;;;;;5.25;4.25;;;;;26.27;54.01;101292.84;5103943;27;46933;-54
2022/06/18 02:30:26;;;;;;;;;7.25;5.25;;;;;26.28;53.75;101291.03;5106386;27;45675;-51
2022/06/18 02:33:01;;;;;;;;;4.25;4.25;;;;;26.27;53.68;101287.47;5101265;27;45699;-53
2022/06/18 02:35:29;;;;;;;;;5.50;5.25;;;;;26.27;54.03;101289.31;5111122;27;45878;-54
2022/06/18 02:37:56;;;;;;;;;4.25;4.00;;;;;26.25;53.95;101284.06;5110032;27;45286;-52
2022/06/18 02:40:25;;;;;;;;;4.00;4.00;;;;;26.27;53.76;101284.78;5112268;27;45298;-54
2022/06/18 02:42:53;;;;;;;;;3.25;2.25;;;;;26.28;53.91;101277.63;5107330;27;45300;-50
2022/06/18 02:45:21;;;;;;;;;4.50;4.25;;;;;26.27;53.69;101276.75;5107242;27;45457;-52
2022/06/18 02:47:46;;;;;;;;;4.50;3.25;;;;;26.28;53.77;101266.88;5110044;27;46215;-52
2022/06/18 02:50:15;;;;;;;;;6.00;3.50;;;;;26.27;54.20;101260.63;5104611;27;45413;-55
2022/06/18 02:52:45;;;;;;;;;3.25;3.25;;;;;26.28;53.90;101256.16;5114506;27;45389;-53
2022/06/18 02:55:30;;;;;;;;;3.25;3.25;;;;;26.27;53.78;101249.91;5109845;27;45429;-51
2022/06/18 02:58:21;;;;;;;;;4.00;4.00;;;;;26.28;53.87;101253.47;5111108;27;46114;-50
2022/06/18 03:00:53;;;;;;;;;3.75;3.75;;;;;26.28;54.02;101242.72;5106837;27;45386;-54
2022/06/18 03:03:21;;;;;;;;;6.00;4.75;;;;;26.26;54.01;101236.63;5102205;27;45698;-55
2022/06/18 03:05:46;;;;;;;;;4.50;4.50;;;;;26.27;53.50;101244.53;5113475;27;45842;-53
2022/06/18 03:08:12;;;;;;;;;4.75;4.75;;;;;26.27;53.90;101239.16;5109809;27;45903;-54
2022/06/18 03:13:22;;;;;;;;;5.25;3.75;;;;;26.27;53.85;101231.13;5103847;27;45676;-53
2022/06/18 03:15:49;;;;;;;;;3.25;3.25;;;;;26.28;53.54;101223.94;5103083;27;45447;-54
2022/06/18 03:18:16;;;;;;;;;4.25;4.25;;;;;26.28;53.61;101214.06;5104089;27;45578;-52
2022/06/18 03:21:06;;;;;;;;;6.25;4.25;;;;;26.28;53.84;101214.06;5105140;27;45445;-55
2022/06/18 03:23:32;;;;;;;;;5.00;4.00;;;;;26.28;53.85;101210.53;5107748;27;45567;-53
2022/06/18 03:25:57;;;;;;;;;4.25;3.25;;;;;26.27;53.34;101206.97;5107486;27;45294;-52
2022/06/18 03:28:24;;;;;;;;;5.75;4.25;;;;;26.28;53.60;101205.16;5102958;27;51022;-62
2022/06/18 03:30:50;;;;;;;;;9.50;6.25;;;;;26.26;52.30;101201.72;5095482;27;45436;-63
2022/06/18 03:33:15;;;;;;;;;11.00;8.00;;;;;26.27;51.61;101204.28;5101142;27;45975;-61
2022/06/18 03:35:45;;;;;;;;;13.50;12.00;;;;;26.23;50.56;101193.97;5103176;27;45696;-61
2022/06/18 03:38:11;;;;;;;;;10.50;9.25;;;;;26.25;49.68;101206.25;5101910;27;45277;-61
2022/06/18 03:40:36;;;;;;;;;10.50;10.25;;;;;26.23;49.04;101197.50;5100886;27;45764;-61
2022/06/18 03:43:02;;;;;;;;;9.75;9.25;;;;;26.23;49.22;101199.34;5101804;27;45460;-61
2022/06/18 03:45:29;;;;;;;;;13.75;11.00;;;;;26.21;48.46;101196.78;5101323;27;45881;-62
2022/06/18 03:47:54;;;;;;;;;14.50;10.75;;;;;26.21;48.53;101199.47;5102965;27;45452;-62
2022/06/18 03:50:20;;;;;;;;;10.50;9.75;;;;;26.19;48.82;101196.06;5099256;27;72327;-61
2022/06/18 03:52:46;;;;;;;;;13.25;11.00;;;;;26.20;48.09;101202.28;5098717;27;47133;-61
2022/06/18 03:55:13;;;;;;;;;13.75;12.25;;;;;26.20;48.05;101195.06;5100498;27;45526;-61
2022/06/18 03:57:39;;;;;;;;;7.25;7.25;;;;;26.19;47.65;101198.75;5106247;27;47838;-62
2022/06/18 04:00:07;;;;;;;;;10.50;9.50;;;;;26.19;48.11;101193.38;5102303;27;45297;-62
2022/06/18 04:02:32;;;;;;;;;12.75;11.25;;;;;26.21;47.64;101193.25;5100371;27;45600;-61
2022/06/18 04:04:58;;;;;;;;;9.50;9.50;;;;;26.18;48.14;101194.34;5085895;27;68065;-61
2022/06/18 04:07:24;;;;;;;;;11.75;10.75;;;;;26.20;47.73;101197.75;5100655;27;75673;-61
2022/06/18 04:09:52;;;;;;;;;10.00;10.00;;;;;26.20;47.34;101191.53;5099935;27;45984;-61
2022/06/18 04:12:17;;;;;;;;;10.50;9.25;;;;;26.20;47.28;101197.75;5116914;27;45317;-61
2022/06/18 04:14:43;;;;;;;;;12.25;11.00;;;;;26.21;46.65;101187.91;5104632;27;68779;-61
2022/06/18 04:17:14;;;;;;;;;10.00;9.50;;;;;26.20;47.20;101184.34;5109455;27;46119;-61
2022/06/18 04:19:40;;;;;;;;;9.50;9.00;;;;;26.20;47.12;101192.38;5113895;27;45944;-61
2022/06/18 04:22:05;;;;;;;;;13.00;10.00;;;;;26.19;46.90;101184.47;5106154;27;45444;-61
2022/06/18 04:24:31;;;;;;;;;13.50;11.00;;;;;26.22;46.90;101186.91;5103751;27;45642;-61
2022/06/18 04:26:56;;;;;;;;;10.50;10.25;;;;;26.22;46.79;101189.56;5100663;27;72216;-61
2022/06/18 04:29:21;;;;;;;;;12.25;10.50;;;;;26.22;46.80;101186.91;5108049;27;46593;-61
2022/06/18 04:31:47;;;;;;;;;12.00;9.50;;;;;26.22;46.51;101184.22;5101498;27;64638;-62
2022/06/18 04:34:13;;;;;;;;;11.25;8.25;;;;;26.21;46.62;101177.16;5106766;27;45525;-61
2022/06/18 04:36:39;;;;;;;;;12.25;11.00;;;;;26.22;46.21;101176.16;5091871;27;47710;-61
2022/06/18 04:39:05;;;;;;;;;12.00;10.00;;;;;26.21;46.08;101175.31;5088668;27;46166;-60
2022/06/18 04:41:30;;;;;;;;;11.25;9.25;;;;;26.21;46.30;101179.84;5103943;27;45337;-61
2022/06/18 04:43:57;;;;;;;;;12.75;10.75;;;;;26.21;45.71;101185.22;5103319;27;65535;-62
2022/06/18 04:46:23;;;;;;;;;12.25;10.50;;;;;26.20;46.04;101189.72;5105753;27;46074;-62
2022/06/18 04:48:48;;;;;;;;;12.00;11.00;;;;;26.21;46.51;101191.41;5094164;27;45495;-61
2022/06/18 04:51:14;;;;;;;;;9.00;9.00;;;;;26.21;46.03;101193.25;5110579;27;66837;-61
2022/06/18 04:53:39;;;;;;;;;11.50;10.75;;;;;26.20;45.83;101200.44;5102802;27;66736;-61
2022/06/18 04:56:05;;;;;;;;;13.00;9.50;;;;;26.19;46.45;101200.56;5107160;27;68810;-61
2022/06/18 04:58:30;;;;;;;;;11.00;10.00;;;;;26.21;45.93;101201.31;5110325;27;45497;-61
2022/06/18 05:00:56;;;;;;;;;12.00;11.00;;;;;26.22;46.09;101201.16;5105680;27;45338;-61
2022/06/18 05:03:22;;;;;;;;;11.00;10.50;;;;;26.21;46.28;101196.78;5090398;27;54070;-61
2022/06/18 05:05:47;;;;;;;;;9.00;8.50;;;;;26.23;45.67;101199.34;5103063;27;46308;-61
2022/06/18 05:08:13;;;;;;;;;12.00;11.75;;;;;26.23;45.42;101200.19;5112680;27;45396;-61
2022/06/18 05:10:39;;;;;;;;;9.25;9.25;;;;;26.23;45.96;101196.66;5100048;27;45345;-61
2022/06/18 05:13:06;;;;;;;;;9.50;9.50;;;;;26.23;46.00;101194.81;5099766;27;45402;-61
2022/06/18 05:15:31;;;;;;;;;12.25;10.75;;;;;26.24;46.14;101191.16;5105599;27;46027;-61
2022/06/18 05:17:58;;;;;;;;;10.00;10.00;;;;;26.26;46.03;101188.31;5104307;27;45511;-61
2022/06/18 05:20:24;;;;;;;;;7.50;6.75;;;;;26.25;45.68;101186.63;5103227;27;45630;-61
2022/06/18 05:22:49;;;;;;;;;10.50;10.50;;;;;26.23;45.79;101184.09;5108067;27;45607;-61
2022/06/18 05:25:15;;;;;;;;;10.75;10.25;;;;;26.24;45.75;101183.13;5110322;27;46270;-62
2022/06/18 05:27:41;;;;;;;;;10.25;7.50;;;;;26.24;45.20;101183.13;5090904;27;45739;-60
2022/06/18 05:30:10;;;;;;;;;9.25;8.50;;;;;26.24;45.53;101171.50;5104244;27;45800;-60
2022/06/18 05:32:35;;;;;;;;;8.25;7.50;;;;;26.22;45.49;101177.00;5102133;27;45658;-60
2022/06/18 05:35:00;;;;;;;;;10.25;9.50;;;;;26.22;45.42;101168.13;5106667;27;46473;-62
2022/06/18 05:37:28;;;;;;;;;8.75;8.75;;;;;26.23;46.00;101168.00;5100841;27;70079;-62
2022/06/18 05:39:54;;;;;;;;;8.50;8.50;;;;;26.23;45.64;101175.19;5108840;27;45364;-60
2022/06/18 05:42:21;;;;;;;;;11.00;10.00;;;;;26.22;45.26;101166.28;5098714;27;45385;-60
2022/06/18 05:44:46;;;;;;;;;9.75;9.00;;;;;26.23;45.21;101170.66;5099959;27;46422;-61
2022/06/18 05:47:19;;;;;;;;;10.50;9.25;;;;;26.23;45.84;101162.63;5102518;27;45527;-62
2022/06/18 05:49:45;;;;;;;;;9.25;9.25;;;;;26.24;45.03;101163.47;5101445;27;45486;-60
2022/06/18 05:52:10;;;;;;;;;10.25;9.50;;;;;26.25;45.12;101166.00;5106408;27;45547;-60
2022/06/18 05:54:36;;;;;;;;;11.25;10.00;;;;;26.26;44.88;101164.16;5108103;27;45286;-61
2022/06/18 05:57:01;;;;;;;;;10.75;9.75;;;;;26.25;44.57;101159.81;5103225;27;45292;-61
2022/06/18 05:59:27;;;;;;;;;10.50;9.50;;;;;26.26;45.17;101158.81;5089960;27;45263;-61
2022/06/18 06:01:56;;;;;;;;;14.25;10.25;;;;;26.27;44.87;101153.31;5108642;27;45558;-61
2022/06/18 06:04:22;;;;;;;;;9.50;9.25;;;;;26.28;44.52;101152.34;5117345;27;46905;-61
2022/06/18 06:06:47;;;;;;;;;9.75;8.00;;;;;26.29;44.48;101154.06;5110648;27;45845;-61
2022/06/18 06:11:28;;;;;;;;;10.50;10.00;;;;;26.30;44.27;101154.91;5109116;27;45500;-61
2022/06/18 06:11:59;;;;;;;;;11.00;9.75;;;;;26.29;44.47;101146.00;5110713;27;45459;-61
2022/06/18 06:14:24;;;;;;;;;9.25;9.00;;;;;26.29;44.60;101140.63;5112359;27;64905;-61
2022/06/18 06:16:50;;;;;;;;;9.75;9.50;;;;;26.32;44.61;101147.56;5101641;27;47037;-61
2022/06/18 06:19:15;;;;;;;;;10.75;9.25;;;;;26.33;44.49;101143.91;5108893;27;45551;-61
2022/06/18 06:21:40;;;;;;;;;10.25;9.75;;;;;26.32;44.25;101148.41;5109998;27;65996;-61
2022/06/18 06:24:06;;;;;;;;;12.00;12.00;;;;;26.34;44.26;101150.94;5101683;27;72419;-61
2022/06/18 06:26:33;;;;;;;;;10.50;10.50;;;;;26.34;44.18;101149.09;5111666;27;45421;-61
2022/06/18 06:29:00;;;;;;;;;14.50;10.25;;;;;26.37;44.02;101158.75;5097575;27;45192;-61
2022/06/18 06:31:26;;;;;;;;;13.50;12.00;;;;;26.36;44.07;101146.28;5110063;27;46159;-61
2022/06/18 06:33:51;;;;;;;;;15.25;11.25;;;;;26.36;44.10;101145.47;5106588;27;58584;-53
2022/06/18 06:36:17;;;;;;;;;9.00;8.00;;;;;26.37;44.36;101148.00;5108380;27;58519;-54
2022/06/18 06:38:42;;;;;;;;;6.25;4.75;;;;;26.37;44.33;101150.69;5111203;27;45263;-51
2022/06/18 06:41:18;;;;;;;;;7.00;5.75;;;;;26.37;44.32;101139.13;5105241;27;61582;-50
2022/06/18 06:43:43;;;;;;;;;5.25;5.25;;;;;26.38;44.28;101138.13;5113627;27;45318;-50
2022/06/18 06:46:11;;;;;;;;;4.00;4.00;;;;;26.37;44.66;101139.97;5102651;27;72870;-51
2022/06/18 06:48:37;;;;;;;;;6.25;3.50;;;;;26.41;45.09;101145.91;5106142;27;45442;-54
2022/06/18 06:51:02;;;;;;;;;3.25;3.25;;;;;26.41;44.69;101141.38;5115527;27;45543;-54
2022/06/18 06:53:27;;;;;;;;;3.25;2.50;;;;;26.44;44.79;101159.06;5110723;27;61050;-54
2022/06/18 06:58:37;;;;;;;;;3.00;2.00;;;;;26.45;45.12;101168.78;5113586;27;45546;-53
2022/06/18 07:01:02;;;;;;;;;1.00;1.00;;;;;26.45;45.27;101164.25;5100103;27;70151;-51
2022/06/18 07:03:30;;;;;;;;;2.00;1.75;;;;;26.46;45.33;101165.13;5106405;27;45396;-50
2022/06/18 07:05:56;;;;;;;;;1.25;1.25;;;;;26.46;45.32;101154.41;5109210;27;46118;-54
2022/06/18 07:08:22;;;;;;;;;1.25;1.25;;;;;26.46;45.33;101165.13;5102963;27;45365;-55
2022/06/18 07:10:49;;;;;;;;;1.25;1.25;;;;;26.45;45.26;101161.59;5104208;27;70619;-51
2022/06/18 07:13:15;;;;;;;;;2.00;1.25;;;;;26.43;45.66;101152.81;5115966;27;45460;-54
2022/06/18 07:15:41;;;;;;;;;1.00;1.00;;;;;26.42;45.89;101150.28;5101677;27;45505;-54
2022/06/18 07:18:14;;;;;;;;;2.75;1.50;;;;;26.42;45.73;101159.19;5106323;27;45569;-54
2022/06/18 07:20:39;;;;;;;;;3.00;2.00;;;;;26.41;46.14;101153.94;5102509;27;45485;-54
2022/06/18 07:23:04;;;;;;;;;3.00;2.00;;;;;26.42;46.34;101155.63;5110015;27;46053;-53
2022/06/18 07:25:30;;;;;;;;;3.50;2.25;;;;;26.41;46.11;101148.59;5116934;27;45438;-53
2022/06/18 07:27:56;;;;;;;;;4.25;1.75;;;;;26.42;46.61;101151.13;5108313;27;45962;-53
2022/06/18 07:30:21;;;;;;;;;5.00;1.00;;;;;26.41;46.32;101144.06;5109420;27;45398;-50
2022/06/18 07:32:48;;;;;;;;;3.50;3.25;;;;;26.40;46.77;101139.69;5088150;27;47531;-54
2022/06/18 07:35:20;;;;;;;;;1.25;1.25;;;;;26.40;46.46;101138.81;5102698;27;45337;-53
2022/06/18 07:37:46;;;;;;;;;4.25;2.00;;;;;26.34;46.67;101129.47;5100976;27;45288;-51
2022/06/18 07:40:11;;;;;;;;;2.00;2.00;;;;;26.39;46.72;101143.34;5106838;27;45515;-54
2022/06/18 07:42:37;;;;;;;;;4.50;2.25;;;;;26.39;47.17;101140.66;5112716;27;45240;-53
2022/06/18 07:45:05;;;;;;;;;2.25;2.25;;;;;26.35;46.71;101133.88;5107405;27;45432;-52
2022/06/18 07:47:30;;;;;;;;;5.25;3.25;;;;;26.39;46.82;101146.03;5108614;27;45260;-55
2022/06/18 07:49:55;;;;;;;;;3.00;3.00;;;;;26.39;47.00;101139.81;5106407;27;45533;-52
2022/06/18 07:52:21;;;;;;;;;3.50;2.25;;;;;26.39;47.42;101132.63;5102385;27;46411;-55
2022/06/18 07:54:46;;;;;;;;;2.25;2.25;;;;;26.39;47.48;101132.63;5101198;27;65534;-55
2022/06/18 07:57:11;;;;;;;;;4.50;4.00;;;;;26.40;47.00;101133.47;5113675;27;45346;-55
2022/06/18 07:59:38;;;;;;;;;2.75;1.75;;;;;26.41;47.48;101124.44;5106771;27;45560;-53
2022/06/18 08:02:04;;;;;;;;;3.50;2.50;;;;;26.41;47.08;101122.59;5107072;27;45473;-53
2022/06/18 08:04:30;;;;;;;;;3.75;2.50;;;;;26.43;47.06;101122.47;5107058;27;45449;-53
2022/06/18 08:06:55;;;;;;;;;4.00;3.00;;;;;26.43;47.45;101114.41;5107657;27;59140;-55
2022/06/18 08:09:20;;;;;;;;;3.00;3.00;;;;;26.44;47.57;101118.81;5117788;27;67258;-52
2022/06/18 08:11:46;;;;;;;;;3.00;3.00;;;;;26.44;47.29;101114.28;5101589;27;73323;-53
2022/06/18 08:14:12;;;;;;;;;2.75;2.75;;;;;26.45;47.58;101110.59;5118414;27;57617;-54
2022/06/18 08:16:37;;;;;;;;;2.25;2.25;;;;;26.46;47.75;101114.16;5108807;27;45582;-55
2022/06/18 08:19:03;;;;;;;;;3.75;3.25;;;;;26.43;47.39;101099.16;5114024;27;45420;-53
2022/06/18 08:21:34;;;;;;;;;3.00;1.75;;;;;26.47;47.54;101102.41;5106476;27;61565;-51
2022/06/18 08:24:03;;;;;;;;;3.25;2.50;;;;;26.47;47.18;101097.91;5106521;27;45492;-53
2022/06/18 08:26:29;;;;;;;;;3.00;3.00;;;;;26.47;47.63;101097.03;5107496;27;45409;-53
2022/06/18 08:28:55;;;;;;;;;3.00;1.25;;;;;26.46;47.25;101090.84;5108173;27;64953;-52
2022/06/18 08:31:20;;;;;;;;;4.00;3.75;;;;;26.48;47.74;101091.53;5108915;27;50908;-53
2022/06/18 08:33:45;;;;;;;;;4.25;4.25;;;;;26.49;47.13;101092.41;5102952;27;62763;-55
2022/06/18 08:36:14;;;;;;;;;3.25;2.25;;;;;26.50;47.53;101091.41;5108369;27;45736;-51
2022/06/18 08:38:41;;;;;;;;;2.75;2.50;;;;;26.50;47.58;101088.72;5100415;27;45322;-52
2022/06/18 08:41:52;;;;;;;;;3.25;3.25;;;;;26.50;47.41;101089.56;5103893;27;45388;-55
2022/06/18 08:44:39;;;;;;;;;6.50;4.00;;;;;26.51;47.27;101077.00;5110482;27;45525;-54
2022/06/18 08:47:27;;;;;;;;;4.00;3.00;;;;;26.50;47.64;101078.81;5105656;27;45509;-54
2022/06/18 08:50:02;;;;;;;;;4.00;4.00;;;;;26.51;47.56;101075.16;5100558;27;46985;-53
2022/06/18 08:52:54;;;;;;;;;6.00;5.00;;;;;26.50;47.27;101073.47;5104446;27;46321;-53
2022/06/18 08:55:31;;;;;;;;;5.25;5.25;;;;;26.51;46.97;101075.16;5100231;27;46342;-53
2022/06/18 08:58:11;;;;;;;;;5.50;3.75;;;;;26.52;46.83;101066.16;5103578;27;45304;-54
2022/06/18 09:01:00;;;;;;;;;4.25;4.25;;;;;26.52;47.51;101065.28;5104219;27;45318;-52
2022/06/18 09:03:42;;;;;;;;;8.00;4.75;;;;;26.52;47.19;101052.72;5101050;27;46156;-53
2022/06/18 09:06:29;;;;;;;;;3.75;3.75;;;;;26.53;47.51;101045.50;5109280;27;45425;-54
2022/06/18 09:09:17;;;;;;;;;4.00;4.00;;;;;26.53;46.82;101040.16;5103802;27;45305;-54
2022/06/18 09:11:50;;;;;;;;;6.25;5.00;;;;;26.55;46.75;101045.38;5099866;27;45409;-54
2022/06/18 09:14:30;;;;;;;;;6.25;5.75;;;;;26.56;47.21;101044.38;5098343;27;45360;-54
2022/06/18 09:17:08;;;;;;;;;5.75;5.75;;;;;26.57;47.05;101041.56;5104160;27;45621;-52
2022/06/18 09:19:36;;;;;;;;;7.25;5.25;;;;;26.57;46.78;101040.72;5099936;27;45341;-52
2022/06/18 09:22:05;;;;;;;;;5.75;5.00;;;;;26.56;46.83;101039.88;5104355;27;45496;-53
2022/06/18 09:24:39;;;;;;;;;5.00;5.00;;;;;26.55;46.49;101032.78;5103434;27;46403;-50
2022/06/18 09:27:08;;;;;;;;;7.75;6.50;;;;;26.57;46.32;101030.81;5107458;27;45638;-51
2022/06/18 09:29:47;;;;;;;;;6.75;6.25;;;;;26.60;46.30;101027.03;5106797;27;45343;-53
2022/06/18 09:32:20;;;;;;;;;8.00;7.00;;;;;26.61;46.95;101029.56;5108718;27;45458;-54
2022/06/18 09:35:08;;;;;;;;;5.50;5.25;;;;;26.62;46.97;101025.06;5111679;27;45420;-52
2022/06/18 09:37:36;;;;;;;;;8.75;7.00;;;;;26.61;46.66;101021.53;5102593;27;45353;-52
2022/06/18 09:40:03;;;;;;;;;7.00;5.75;;;;;26.62;47.11;101014.34;5103904;27;45615;-53
2022/06/18 09:42:37;;;;;;;;;9.75;7.50;;;;;26.62;46.83;101008.97;5110750;27;45431;-53
2022/06/18 09:45:10;;;;;;;;;7.00;7.00;;;;;26.63;46.98;101008.84;5095843;27;46898;-53
2022/06/18 09:47:42;;;;;;;;;6.50;6.00;;;;;26.64;47.05;101004.31;5099595;27;45189;-52
2022/06/18 09:50:36;;;;;;;;;7.50;7.25;;;;;26.64;47.38;101005.13;5090360;27;45403;-54
2022/06/18 09:53:11;;;;;;;;;6.50;5.25;;;;;26.66;46.66;101000.47;5111429;27;45531;-50
2022/06/18 09:55:42;;;;;;;;;7.50;7.50;;;;;26.68;46.35;100997.66;5109374;27;45477;-53
2022/06/18 09:58:44;;;;;;;;;8.50;8.50;;;;;26.70;46.55;100995.69;5103234;27;45876;-51
2022/06/18 10:01:16;;;;;;;;;7.50;7.25;;;;;26.72;46.53;100993.72;5081047;27;45459;-52
2022/06/18 10:09:15;;;;;;;;;6.50;6.50;;;;;26.76;46.41;100972.81;5110917;27;45286;-54
2022/06/18 10:11:41;;;;;;;;;7.00;6.25;;;;;26.77;46.37;100964.59;5104942;27;47693;-53
2022/06/18 10:14:12;;;;;;;;;6.50;6.50;;;;;26.81;46.42;100973.25;5109702;27;45371;-55
2022/06/18 10:17:03;;;;;;;;;5.50;5.00;;;;;26.82;46.66;100966.84;5102338;27;45417;-55
2022/06/18 10:20:00;;;;;;;;;6.25;6.25;;;;;26.82;46.29;100965.00;5117166;27;45358;-55
2022/06/18 10:22:47;;;;;;;;;7.00;6.00;;;;;26.84;46.87;100960.38;5114652;27;45456;-53
2022/06/18 10:25:36;;;;;;;;;5.25;5.25;;;;;26.85;46.84;100950.47;5108013;27;45273;-54
2022/06/18 10:28:12;;;;;;;;;6.00;6.00;;;;;26.85;46.53;100950.47;5104788;27;45441;-51
2022/06/18 10:30:54;;;;;;;;;7.25;7.00;;;;;26.87;46.31;100953.84;5090923;27;45635;-52
2022/06/18 10:33:42;;;;;;;;;8.00;6.00;;;;;26.88;46.37;100950.19;5112846;27;45469;-54
2022/06/18 10:36:36;;;;;;;;;8.50;6.50;;;;;26.89;46.75;100950.03;5112815;27;45396;-54
2022/06/18 10:39:01;;;;;;;;;8.50;7.00;;;;;26.91;46.57;100947.19;5110341;27;46023;-55
2022/06/18 10:41:36;;;;;;;;;7.25;7.00;;;;;26.90;46.79;100937.47;5106041;27;45299;-52
2022/06/18 10:44:09;;;;;;;;;8.00;6.75;;;;;26.93;46.48;100936.31;5100817;27;45372;-53
2022/06/18 10:46:35;;;;;;;;;5.75;5.75;;;;;26.94;46.46;100938.03;5109031;27;45495;-54
2022/06/18 10:49:04;;;;;;;;;6.75;6.75;;;;;26.96;46.13;100936.88;5110518;27;47177;-52
2022/06/18 10:51:44;;;;;;;;;5.00;5.00;;;;;26.96;46.09;100920.75;5111192;27;45376;-52
2022/06/18 10:54:10;;;;;;;;;6.00;6.00;;;;;26.95;46.46;100910.16;5114571;27;46035;-55
2022/06/18 10:57:05;;;;;;;;;7.00;5.50;;;;;27.00;46.00;100911.44;5114329;27;45467;-55
2022/06/18 10:59:34;;;;;;;;;6.75;6.75;;;;;27.00;46.38;100900.72;5096342;27;47071;-54
2022/06/18 11:02:14;;;;;;;;;9.00;6.25;;;;;27.03;45.61;100902.25;5107718;27;45352;-52
2022/06/18 11:04:41;;;;;;;;;6.00;6.00;;;;;27.05;45.68;100902.94;5111313;27;45389;-56
2022/06/18 11:07:08;;;;;;;;;6.00;6.00;;;;;27.07;45.82;100903.63;5113893;27;49305;-55
2022/06/18 11:09:39;;;;;;;;;8.25;7.00;;;;;27.09;46.08;100893.59;5109478;27;45560;-56
2022/06/18 11:12:18;;;;;;;;;8.50;7.00;;;;;27.12;45.67;100889.78;5114268;27;45421;-54
2022/06/18 11:14:43;;;;;;;;;7.00;7.00;;;;;27.12;45.74;100890.63;5119294;27;45381;-55
2022/06/18 11:17:31;;;;;;;;;7.00;5.50;;;;;27.12;45.55;100882.56;5104862;27;45377;-55
2022/06/18 11:20:24;;;;;;;;;8.25;5.25;;;;;27.13;45.50;100878.03;5111901;27;46361;-52
2022/06/18 11:22:51;;;;;;;;;5.50;5.50;;;;;27.14;45.54;100877.88;5101130;27;45385;-52
2022/06/18 11:25:39;;;;;;;;;9.00;7.00;;;;;27.15;45.71;100868.84;5112568;27;45430;-53
2022/06/18 11:28:14;;;;;;;;;9.50;7.50;;;;;27.12;46.04;100862.91;5110787;27;45460;-53
2022/06/18 11:30:42;;;;;;;;;8.50;6.75;;;;;27.16;45.96;100873.22;5104928;27;45496;-53
2022/06/18 11:33:23;;;;;;;;;7.00;7.00;;;;;27.16;45.53;100865.19;5103590;27;45413;-53
2022/06/18 11:35:50;;;;;;;;;6.75;5.75;;;;;27.17;45.78;100857.94;5105859;27;45431;-52
2022/06/18 11:38:30;;;;;;;;;7.00;6.00;;;;;27.18;46.00;100852.44;5109487;27;45532;-50
2022/06/18 11:40:59;;;;;;;;;7.00;4.75;;;;;27.18;45.84;100846.19;5107605;27;45442;-52
2022/06/18 11:43:50;;;;;;;;;6.75;5.75;;;;;27.18;45.83;100844.38;5113942;27;45732;-54
2022/06/18 11:46:22;;;;;;;;;6.50;5.75;;;;;27.18;45.62;100835.44;5103485;27;45467;-53
2022/06/18 11:48:53;;;;;;;;;6.00;6.00;;;;;27.19;45.49;100839.84;5100607;27;45497;-54